LJLJ

Ljubljana Jože Pučnik Airport

Airport
ICAO code
LJLJ
Summary
ICAO Region
EUR
ICAO Territory
Location

Ljubljana,

Coordinates
46° 13' 51" N , 14° 27' 18" E
Metar
Observation
LJLJ 250030Z VRB02KT 9999 -RA FEW015 BKN030 12/12 Q1015 NOSIG
Station
Ljubljana / Brnik
Date/Time
2022-09-25 00:30:00
Wind speed
02 kts
Lowest cloud amount
few clouds
Temperature
12°C
Dew point
12°C
Humidity
100%
QNH
1015 hPa
Weather condition
light rain

Ljubljana Jože Pučnik Airport (IATA: LJU, ICAO: LJLJ), also known by its previous name Brnik Airport, is the international airport of Ljubljana, Slovenia. The airport is located near the village of Brnik, 19 km north of Ljubljana and 11 km south of Kranj on the road between Kranj and Mengeš.

Runways

Designator Length Width Surface Rops
13/31 3300 45 ASP Yes/Yes

Airport map

Aerial View

Airport accidents

SKYbrary Partners:

Safety knowledge contributed by: